sensor_id;sensor_type;location;lat;lon;timestamp;pressure;altitude;pressure_sealevel;temperature;humidity
17525;BME280;40431;52.198;9.902;2023-02-08T00:00:46;103148.16;;;-2.08;100.00
17525;BME280;40431;52.198;9.902;2023-02-08T00:03:12;103144.69;;;-2.06;100.00
17525;BME280;40431;52.198;9.902;2023-02-08T00:05:40;103150.84;;;-2.07;100.00
17525;BME280;40431;52.198;9.902;2023-02-08T00:08:07;103140.22;;;-2.07;100.00
17525;BME280;40431;52.198;9.902;2023-02-08T00:10:33;103145.59;;;-2.05;100.00
17525;BME280;40431;52.198;9.902;2023-02-08T00:13:00;103137.34;;;-2.13;100.00
17525;BME280;40431;52.198;9.902;2023-02-08T00:15:27;103132.66;;;-2.22;100.00
17525;BME280;40431;52.198;9.902;2023-02-08T00:17:53;103134.34;;;-2.24;100.00
17525;BME280;40431;52.198;9.902;2023-02-08T00:20:19;103132.38;;;-2.29;100.00
17525;BME280;40431;52.198;9.902;2023-02-08T00:22:47;103125.31;;;-2.29;100.00
17525;BME280;40431;52.198;9.902;2023-02-08T00:25:14;103118.03;;;-2.35;100.00
17525;BME280;40431;52.198;9.902;2023-02-08T00:27:40;103119.09;;;-2.29;100.00
17525;BME280;40431;52.198;9.902;2023-02-08T00:30:07;103116.53;;;-2.26;100.00
17525;BME280;40431;52.198;9.902;2023-02-08T00:32:34;103117.50;;;-2.24;100.00
17525;BME280;40431;52.198;9.902;2023-02-08T00:35:00;103112.22;;;-2.23;100.00
17525;BME280;40431;52.198;9.902;2023-02-08T00:37:27;103121.91;;;-2.25;100.00
17525;BME280;40431;52.198;9.902;2023-02-08T00:39:54;103125.53;;;-2.23;100.00
17525;BME280;40431;52.198;9.902;2023-02-08T00:42:22;103123.84;;;-2.21;100.00
17525;BME280;40431;52.198;9.902;2023-02-08T00:44:50;103119.25;;;-2.25;100.00
17525;BME280;40431;52.198;9.902;2023-02-08T00:47:17;103119.25;;;-2.25;100.00
17525;BME280;40431;52.198;9.902;2023-02-08T00:49:43;103123.66;;;-2.25;100.00
17525;BME280;40431;52.198;9.902;2023-02-08T00:52:10;103118.31;;;-2.27;100.00
17525;BME280;40431;52.198;9.902;2023-02-08T00:54:36;103118.38;;;-2.24;100.00
17525;BME280;40431;52.198;9.902;2023-02-08T00:57:04;103118.38;;;-2.24;100.00
17525;BME280;40431;52.198;9.902;2023-02-08T00:59:30;103112.97;;;-2.27;100.00
17525;BME280;40431;52.198;9.902;2023-02-08T01:01:57;103116.44;;;-2.29;100.00
17525;BME280;40431;52.198;9.902;2023-02-08T01:04:23;103123.63;;;-2.27;100.00
17525;BME280;40431;52.198;9.902;2023-02-08T01:06:49;103131.63;;;-2.25;100.00
17525;BME280;40431;52.198;9.902;2023-02-08T01:09:16;103121.91;;;-2.25;100.00
17525;BME280;40431;52.198;9.902;2023-02-08T01:11:42;103131.69;;;-2.24;100.00
17525;BME280;40431;52.198;9.902;2023-02-08T01:14:10;103128.03;;;-2.27;100.00
17525;BME280;40431;52.198;9.902;2023-02-08T01:16:36;103121.72;;;-2.31;100.00
17525;BME280;40431;52.198;9.902;2023-02-08T01:19:03;103126.91;;;-2.34;100.00
17525;BME280;40431;52.198;9.902;2023-02-08T01:21:31;103129.50;;;-2.36;100.00
17525;BME280;40431;52.198;9.902;2023-02-08T01:23:59;103130.31;;;-2.38;100.00
17525;BME280;40431;52.198;9.902;2023-02-08T01:26:26;103134.16;;;-2.30;100.00
17525;BME280;40431;52.198;9.902;2023-02-08T01:28:53;103125.44;;;-2.26;100.00
17525;BME280;40431;52.198;9.902;2023-02-08T01:31:23;103125.53;;;-2.23;100.00
17525;BME280;40431;52.198;9.902;2023-02-08T01:33:50;103119.31;;;-2.23;100.00
17525;BME280;40431;52.198;9.902;2023-02-08T01:36:17;103112.16;;;-2.26;100.00
17525;BME280;40431;52.198;9.902;2023-02-08T01:38:43;103116.56;;;-2.25;100.00
17525;BME280;40431;52.198;9.902;2023-02-08T01:41:14;103116.56;;;-2.25;100.00
17525;BME280;40431;52.198;9.902;2023-02-08T01:44:03;103113.06;;;-2.24;100.00
17525;BME280;40431;52.198;9.902;2023-02-08T01:46:32;103107.75;;;-2.24;100.00
17525;BME280;40431;52.198;9.902;2023-02-08T01:49:01;103114.00;;;-2.23;100.00
17525;BME280;40431;52.198;9.902;2023-02-08T01:51:32;103107.75;;;-2.24;100.00
17525;BME280;40431;52.198;9.902;2023-02-08T01:54:00;103112.97;;;-2.27;100.00
17525;BME280;40431;52.198;9.902;2023-02-08T01:56:31;103112.94;;;-2.28;100.00
17525;BME280;40431;52.198;9.902;2023-02-08T01:59:01;103114.69;;;-2.29;100.00
17525;BME280;40431;52.198;9.902;2023-02-08T02:01:30;103105.84;;;-2.28;100.00
17525;BME280;40431;52.198;9.902;2023-02-08T02:03:59;103097.03;;;-2.27;100.00
17525;BME280;40431;52.198;9.902;2023-02-08T02:06:30;103106.91;;;-2.23;100.00
17525;BME280;40431;52.198;9.902;2023-02-08T02:09:04;103104.25;;;-2.23;100.00
17525;BME280;40431;52.198;9.902;2023-02-08T02:11:33;103102.34;;;-2.27;100.00
17525;BME280;40431;52.198;9.902;2023-02-08T02:14:00;103094.34;;;-2.28;100.00
17525;BME280;40431;52.198;9.902;2023-02-08T02:16:26;103104.22;;;-2.24;100.00
17525;BME280;40431;52.198;9.902;2023-02-08T02:18:52;103105.94;;;-2.25;100.00
17525;BME280;40431;52.198;9.902;2023-02-08T02:24:42;103102.13;;;-2.33;100.00
17525;BME280;40431;52.198;9.902;2023-02-08T02:30:38;103101.84;;;-2.42;100.00
17525;BME280;40431;52.198;9.902;2023-02-08T02:33:36;103099.13;;;-2.44;100.00
17525;BME280;40431;52.198;9.902;2023-02-08T02:36:14;103089.25;;;-2.48;100.00
17525;BME280;40431;52.198;9.902;2023-02-08T02:38:53;103091.84;;;-2.49;100.00
17525;BME280;40431;52.198;9.902;2023-02-08T02:41:34;103097.09;;;-2.53;100.00
17525;BME280;40431;52.198;9.902;2023-02-08T02:44:29;103085.56;;;-2.52;100.00
17525;BME280;40431;52.198;9.902;2023-02-08T02:47:05;103083.78;;;-2.53;100.00
17525;BME280;40431;52.198;9.902;2023-02-08T02:49:38;103082.88;;;-2.53;100.00
17525;BME280;40431;52.198;9.902;2023-02-08T02:52:15;103081.97;;;-2.54;100.00
17525;BME280;40431;52.198;9.902;2023-02-08T02:54:48;103065.50;;;-2.69;100.00
17525;BME280;40431;52.198;9.902;2023-02-08T02:57:20;103075.91;;;-2.75;100.00
17525;BME280;40431;52.198;9.902;2023-02-08T02:59:47;103081.34;;;-2.72;100.00
17525;BME280;40431;52.198;9.902;2023-02-08T03:02:13;103075.59;;;-2.85;100.00
17525;BME280;40431;52.198;9.902;2023-02-08T03:04:52;103082.56;;;-2.88;100.00
17525;BME280;40431;52.198;9.902;2023-02-08T03:07:30;103085.09;;;-2.91;100.00
17525;BME280;40431;52.198;9.902;2023-02-08T03:10:07;103090.63;;;-2.85;100.00
17525;BME280;40431;52.198;9.902;2023-02-08T03:12:47;103083.69;;;-2.81;100.00
17525;BME280;40431;52.198;9.902;2023-02-08T03:15:24;103074.75;;;-2.83;100.00
17525;BME280;40431;52.198;9.902;2023-02-08T03:18:01;103077.53;;;-2.80;100.00
17525;BME280;40431;52.198;9.902;2023-02-08T03:20:33;103089.09;;;-2.78;100.00
17525;BME280;40431;52.198;9.902;2023-02-08T03:23:08;103097.16;;;-2.75;100.00
17525;BME280;40431;52.198;9.902;2023-02-08T03:25:45;103088.34;;;-2.74;100.00
17525;BME280;40431;52.198;9.902;2023-02-08T03:28:19;103089.19;;;-2.75;100.00
17525;BME280;40431;52.198;9.902;2023-02-08T03:30:51;103086.44;;;-2.78;100.00
17525;BME280;40431;52.198;9.902;2023-02-08T03:33:23;103084.63;;;-2.79;100.00
17525;BME280;40431;52.198;9.902;2023-02-08T03:35:57;103083.84;;;-2.77;100.00
17525;BME280;40431;52.198;9.902;2023-02-08T03:38:31;103081.13;;;-2.78;100.00
17525;BME280;40431;52.198;9.902;2023-02-08T03:41:01;103075.91;;;-2.75;100.00
17525;BME280;40431;52.198;9.902;2023-02-08T03:43:31;103081.22;;;-2.75;100.00
17525;BME280;40431;52.198;9.902;2023-02-08T03:46:03;103072.38;;;-2.76;100.00
17525;BME280;40431;52.198;9.902;2023-02-08T03:48:33;103067.84;;;-2.78;100.00
17525;BME280;40431;52.198;9.902;2023-02-08T03:51:04;103059.78;;;-2.81;100.00
17525;BME280;40431;52.198;9.902;2023-02-08T03:53:31;103061.47;;;-2.83;100.00
17525;BME280;40431;52.198;9.902;2023-02-08T03:56:06;103055.22;;;-2.86;100.00
17525;BME280;40431;52.198;9.902;2023-02-08T03:58:39;103055.09;;;-2.89;100.00
17525;BME280;40431;52.198;9.902;2023-02-08T04:01:13;103043.53;;;-2.91;100.00
17525;BME280;40431;52.198;9.902;2023-02-08T04:03:42;103046.34;;;-2.86;100.00
17525;BME280;40431;52.198;9.902;2023-02-08T04:06:11;103047.34;;;-2.82;100.00
17525;BME280;40431;52.198;9.902;2023-02-08T04:08:38;103048.47;;;-2.76;100.00
17525;BME280;40431;52.198;9.902;2023-02-08T04:11:04;103052.88;;;-2.76;100.00
17525;BME280;40431;52.198;9.902;2023-02-08T04:13:31;103054.47;;;-2.81;100.00
17525;BME280;40431;52.198;9.902;2023-02-08T04:15:57;103058.78;;;-2.85;100.00
17525;BME280;40431;52.198;9.902;2023-02-08T04:18:24;103064.09;;;-2.85;100.00
17525;BME280;40431;52.198;9.902;2023-02-08T04:20:50;103068.50;;;-2.86;100.00
17525;BME280;40431;52.198;9.902;2023-02-08T04:23:18;103068.50;;;-2.86;100.00
17525;BME280;40431;52.198;9.902;2023-02-08T04:25:44;103068.38;;;-2.89;100.00
17525;BME280;40431;52.198;9.902;2023-02-08T04:28:10;103068.38;;;-2.89;99.98
17525;BME280;40431;52.198;9.902;2023-02-08T04:30:37;103068.28;;;-2.92;98.58
17525;BME280;40431;52.198;9.902;2023-02-08T04:33:03;103060.09;;;-2.98;98.85
17525;BME280;40431;52.198;9.902;2023-02-08T04:35:30;103058.88;;;-3.08;98.01
17525;BME280;40431;52.198;9.902;2023-02-08T04:37:56;103062.41;;;-3.07;97.99
17525;BME280;40431;52.198;9.902;2023-02-08T04:40:24;103072.94;;;-3.10;98.24
17525;BME280;40431;52.198;9.902;2023-02-08T04:42:50;103074.84;;;-3.06;98.32
17525;BME280;40431;52.198;9.902;2023-02-08T04:45:17;103080.06;;;-3.09;98.44
17525;BME280;40431;52.198;9.902;2023-02-08T04:47:43;103078.34;;;-3.07;98.67
17525;BME280;40431;52.198;9.902;2023-02-08T04:50:09;103081.06;;;-3.06;98.56
17525;BME280;40431;52.198;9.902;2023-02-08T04:52:36;103080.06;;;-3.09;97.66
17525;BME280;40431;52.198;9.902;2023-02-08T04:55:02;103081.72;;;-3.11;97.84
17525;BME280;40431;52.198;9.902;2023-02-08T04:57:30;103087.56;;;-3.22;96.94
17525;BME280;40431;52.198;9.902;2023-02-08T04:59:56;103083.09;;;-3.23;96.96
17525;BME280;40431;52.198;9.902;2023-02-08T05:02:23;103075.44;;;-3.15;96.25
17525;BME280;40431;52.198;9.902;2023-02-08T05:04:49;103082.59;;;-3.12;95.18
17525;BME280;40431;52.198;9.902;2023-02-08T05:07:15;103081.72;;;-3.11;95.44
17525;BME280;40431;52.198;9.902;2023-02-08T05:09:42;103080.28;;;-3.03;95.45
17525;BME280;40431;52.198;9.902;2023-02-08T05:12:08;103079.31;;;-3.05;94.82
17525;BME280;40431;52.198;9.902;2023-02-08T05:14:36;103086.06;;;-3.15;94.11
17525;BME280;40431;52.198;9.902;2023-02-08T05:17:02;103083.44;;;-3.13;94.82
17525;BME280;40431;52.198;9.902;2023-02-08T05:19:29;103082.72;;;-3.09;93.82
17525;BME280;40431;52.198;9.902;2023-02-08T05:21:55;103087.03;;;-3.11;94.39
17525;BME280;40431;52.198;9.902;2023-02-08T05:24:22;103080.94;;;-3.09;95.73
17525;BME280;40431;52.198;9.902;2023-02-08T05:26:49;103089.19;;;-3.01;97.65
17525;BME280;40431;52.198;9.902;2023-02-08T05:29:15;103093.75;;;-2.97;96.23
17525;BME280;40431;52.198;9.902;2023-02-08T05:31:43;103093.75;;;-2.97;95.35
17525;BME280;40431;52.198;9.902;2023-02-08T05:34:09;103100.94;;;-2.94;96.28
17525;BME280;40431;52.198;9.902;2023-02-08T05:36:36;103098.31;;;-2.93;98.46
17525;BME280;40431;52.198;9.902;2023-02-08T05:39:03;103095.13;;;-3.08;98.54
17525;BME280;40431;52.198;9.902;2023-02-08T05:41:29;103095.34;;;-3.02;100.00
17525;BME280;40431;52.198;9.902;2023-02-08T05:43:55;103092.88;;;-2.97;100.00
17525;BME280;40431;52.198;9.902;2023-02-08T05:46:22;103091.31;;;-2.91;100.00
17525;BME280;40431;52.198;9.902;2023-02-08T05:48:50;103091.09;;;-2.97;100.00
17525;BME280;40431;52.198;9.902;2023-02-08T05:51:16;103089.28;;;-2.98;100.00
17525;BME280;40431;52.198;9.902;2023-02-08T05:53:42;103096.41;;;-2.97;100.00
17525;BME280;40431;52.198;9.902;2023-02-08T05:56:09;103089.19;;;-3.01;100.00
17525;BME280;40431;52.198;9.902;2023-02-08T05:58:35;103106.94;;;-3.00;100.00
17525;BME280;40431;52.198;9.902;2023-02-08T06:01:07;103099.91;;;-2.98;100.00
17525;BME280;40431;52.198;9.902;2023-02-08T06:03:33;103108.75;;;-2.99;100.00
17525;BME280;40431;52.198;9.902;2023-02-08T06:06:01;103106.69;;;-3.06;100.00
17525;BME280;40431;52.198;9.902;2023-02-08T06:08:27;103113.72;;;-3.08;100.00
17525;BME280;40431;52.198;9.902;2023-02-08T06:10:54;103117.22;;;-3.09;100.00
17525;BME280;40431;52.198;9.902;2023-02-08T06:13:20;103107.38;;;-3.12;100.00
17525;BME280;40431;52.198;9.902;2023-02-08T06:15:46;103115.44;;;-3.09;100.00
17525;BME280;40431;52.198;9.902;2023-02-08T06:18:13;103110.19;;;-3.07;100.00
17525;BME280;40431;52.198;9.902;2023-02-08T06:20:39;103120.47;;;-3.16;100.00
17525;BME280;40431;52.198;9.902;2023-02-08T06:23:07;103112.50;;;-3.16;100.00
17525;BME280;40431;52.198;9.902;2023-02-08T06:25:33;103114.13;;;-3.22;100.00
17525;BME280;40431;52.198;9.902;2023-02-08T06:28:00;103115.06;;;-3.20;100.00
17525;BME280;40431;52.198;9.902;2023-02-08T06:30:27;103116.97;;;-3.15;100.00
17525;BME280;40431;52.198;9.902;2023-02-08T06:32:54;103121.16;;;-3.22;100.00
17525;BME280;40431;52.198;9.902;2023-02-08T06:35:20;103118.34;;;-3.27;100.00
17525;BME280;40431;52.198;9.902;2023-02-08T06:37:46;103124.00;;;-3.17;100.00
17525;BME280;40431;52.198;9.902;2023-02-08T06:40:14;103114.13;;;-3.22;100.00
17525;BME280;40431;52.198;9.902;2023-02-08T06:42:41;103114.59;;;-3.32;100.00
17525;BME280;40431;52.198;9.902;2023-02-08T06:45:08;103110.97;;;-3.34;100.00
17525;BME280;40431;52.198;9.902;2023-02-08T06:47:34;103108.22;;;-3.37;100.00
17525;BME280;40431;52.198;9.902;2023-02-08T06:50:01;103110.88;;;-3.37;100.00
17525;BME280;40431;52.198;9.902;2023-02-08T06:52:27;103109.06;;;-3.38;100.00
17525;BME280;40431;52.198;9.902;2023-02-08T06:54:54;103124.88;;;-3.41;100.00
17525;BME280;40431;52.198;9.902;2023-02-08T06:57:21;103121.75;;;-3.54;100.00
17525;BME280;40431;52.198;9.902;2023-02-08T06:59:48;103130.34;;;-3.59;100.00
17525;BME280;40431;52.198;9.902;2023-02-08T07:02:16;103115.19;;;-3.63;100.00
17525;BME280;40431;52.198;9.902;2023-02-08T07:04:43;103116.78;;;-3.67;100.00
17525;BME280;40431;52.198;9.902;2023-02-08T07:07:10;103117.53;;;-3.71;100.00
17525;BME280;40431;52.198;9.902;2023-02-08T07:09:37;103119.38;;;-3.69;100.00
17525;BME280;40431;52.198;9.902;2023-02-08T07:12:03;103123.91;;;-3.66;100.00
17525;BME280;40431;52.198;9.902;2023-02-08T07:14:32;103125.84;;;-3.62;100.00
17525;BME280;40431;52.198;9.902;2023-02-08T07:16:59;103134.22;;;-3.51;100.00
17525;BME280;40431;52.198;9.902;2023-02-08T07:19:26;103133.31;;;-3.52;100.00
17525;BME280;40431;52.198;9.902;2023-02-08T07:21:52;103127.56;;;-3.40;100.00
17525;BME280;40431;52.198;9.902;2023-02-08T07:24:19;103124.25;;;-3.34;100.00
17525;BME280;40431;52.198;9.902;2023-02-08T07:26:46;103120.84;;;-3.30;100.00
17525;BME280;40431;52.198;9.902;2023-02-08T07:29:12;103128.81;;;-3.30;100.00
17525;BME280;40431;52.198;9.902;2023-02-08T07:31:40;103127.16;;;-3.28;100.00
17525;BME280;40431;52.198;9.902;2023-02-08T07:34:06;103131.72;;;-3.24;100.00
17525;BME280;40431;52.198;9.902;2023-02-08T07:36:32;103122.88;;;-3.24;100.00
17525;BME280;40431;52.198;9.902;2023-02-08T07:38:59;103125.56;;;-3.23;100.00
17525;BME280;40431;52.198;9.902;2023-02-08T07:41:26;103122.06;;;-3.22;100.00
17525;BME280;40431;52.198;9.902;2023-02-08T07:43:53;103114.22;;;-3.19;100.00
17525;BME280;40431;52.198;9.902;2023-02-08T07:46:20;103114.94;;;-3.23;100.00
17525;BME280;40431;52.198;9.902;2023-02-08T07:48:48;103114.94;;;-3.23;100.00
17525;BME280;40431;52.198;9.902;2023-02-08T07:51:15;103110.47;;;-3.24;100.00
17525;BME280;40431;52.198;9.902;2023-02-08T07:53:41;103099.03;;;-3.23;100.00
17525;BME280;40431;52.198;9.902;2023-02-08T07:56:07;103099.97;;;-3.21;100.00
17525;BME280;40431;52.198;9.902;2023-02-08T07:58:35;103108.50;;;-3.05;100.00
17525;BME280;40431;52.198;9.902;2023-02-08T08:01:01;103106.19;;;-2.96;100.00
17525;BME280;40431;52.198;9.902;2023-02-08T08:03:27;103102.88;;;-2.89;100.00
17525;BME280;40431;52.198;9.902;2023-02-08T08:05:55;103106.19;;;-2.96;100.00
17525;BME280;40431;52.198;9.902;2023-02-08T08:08:22;103100.88;;;-2.96;100.00
17525;BME280;40431;52.198;9.902;2023-02-08T08:10:48;103095.38;;;-3.00;100.00
17525;BME280;40431;52.198;9.902;2023-02-08T08:13:14;103101.91;;;-2.92;100.00
17525;BME280;40431;52.198;9.902;2023-02-08T08:15:41;103099.50;;;-2.85;100.00
17525;BME280;40431;52.198;9.902;2023-02-08T08:18:07;103100.69;;;-2.76;100.00
17525;BME280;40431;52.198;9.902;2023-02-08T08:20:34;103098.53;;;-2.61;100.00
17525;BME280;40431;52.198;9.902;2023-02-08T08:23:02;103099.00;;;-2.48;100.00
17525;BME280;40431;52.198;9.902;2023-02-08T08:25:31;103096.63;;;-2.39;100.00
17525;BME280;40431;52.198;9.902;2023-02-08T08:27:59;103097.78;;;-2.31;100.00
17525;BME280;40431;52.198;9.902;2023-02-08T08:30:26;103108.81;;;-2.19;100.00
17525;BME280;40431;52.198;9.902;2023-02-08T08:32:53;103099.44;;;-2.07;100.00
17525;BME280;40431;52.198;9.902;2023-02-08T08:35:19;103105.81;;;-2.02;100.00
17525;BME280;40431;52.198;9.902;2023-02-08T08:37:46;103098.94;;;-1.95;100.00
17525;BME280;40431;52.198;9.902;2023-02-08T08:40:13;103095.47;;;-1.93;100.00
17525;BME280;40431;52.198;9.902;2023-02-08T08:42:40;103095.75;;;-1.83;99.84
17525;BME280;40431;52.198;9.902;2023-02-08T08:45:07;103097.75;;;-1.76;99.39
17525;BME280;40431;52.198;9.902;2023-02-08T08:47:33;103100.69;;;-1.67;99.46
17525;BME280;40431;52.198;9.902;2023-02-08T08:50:00;103098.03;;;-1.67;99.37
17525;BME280;40431;52.198;9.902;2023-02-08T08:52:27;103095.66;;;-1.58;99.65
17525;BME280;40431;52.198;9.902;2023-02-08T08:54:53;103092.16;;;-1.57;100.00
17525;BME280;40431;52.198;9.902;2023-02-08T08:57:21;103085.28;;;-1.48;100.00
17525;BME280;40431;52.198;9.902;2023-02-08T08:59:47;103085.38;;;-1.45;99.78
17525;BME280;40431;52.198;9.902;2023-02-08T09:02:14;103087.44;;;-1.35;98.26
17525;BME280;40431;52.198;9.902;2023-02-08T09:04:40;103090.31;;;-1.29;93.74
17525;BME280;40431;52.198;9.902;2023-02-08T09:07:08;103079.75;;;-1.24;92.83
17525;BME280;40431;52.198;9.902;2023-02-08T09:09:35;103086.16;;;-1.18;93.88
17525;BME280;40431;52.198;9.902;2023-02-08T09:12:02;103077.50;;;-1.10;95.04
17525;BME280;40431;52.198;9.902;2023-02-08T09:14:30;103082.94;;;-1.06;94.64
17525;BME280;40431;52.198;9.902;2023-02-08T09:16:57;103077.78;;;-1.01;94.51
17525;BME280;40431;52.198;9.902;2023-02-08T09:19:23;103083.19;;;-0.96;94.29
17525;BME280;40431;52.198;9.902;2023-02-08T09:21:50;103085.97;;;-0.92;94.31
17525;BME280;40431;52.198;9.902;2023-02-08T09:24:16;103086.13;;;-0.87;95.01
17525;BME280;40431;52.198;9.902;2023-02-08T09:26:43;103084.53;;;-0.80;96.01
17525;BME280;40431;52.198;9.902;2023-02-08T09:29:10;103086.47;;;-0.73;96.67
17525;BME280;40431;52.198;9.902;2023-02-08T09:31:38;103083.00;;;-0.71;95.87
17525;BME280;40431;52.198;9.902;2023-02-08T09:34:06;103081.47;;;-0.62;94.49
17525;BME280;40431;52.198;9.902;2023-02-08T09:36:34;103086.84;;;-0.59;94.17
17525;BME280;40431;52.198;9.902;2023-02-08T09:39:06;103083.31;;;-0.60;94.05
17525;BME280;40431;52.198;9.902;2023-02-08T09:41:47;103074.44;;;-0.57;93.62
17525;BME280;40431;52.198;9.902;2023-02-08T09:44:24;103077.19;;;-0.56;94.31
17525;BME280;40431;52.198;9.902;2023-02-08T09:46:57;103082.63;;;-0.51;95.25
17525;BME280;40431;52.198;9.902;2023-02-08T09:49:29;103072.00;;;-0.49;94.83
17525;BME280;40431;52.198;9.902;2023-02-08T09:51:59;103072.09;;;-0.46;95.80
17525;BME280;40431;52.198;9.902;2023-02-08T09:54:31;103072.16;;;-0.43;94.54
17525;BME280;40431;52.198;9.902;2023-02-08T09:56:59;103075.84;;;-0.38;92.62
17525;BME280;40431;52.198;9.902;2023-02-08T09:59:29;103076.75;;;-0.36;89.19
17525;BME280;40431;52.198;9.902;2023-02-08T10:02:01;103078.59;;;-0.34;89.11
17525;BME280;40431;52.198;9.902;2023-02-08T10:04:38;103089.53;;;-0.23;90.51
17525;BME280;40431;52.198;9.902;2023-02-08T10:07:08;103081.81;;;-0.12;91.12
17525;BME280;40431;52.198;9.902;2023-02-08T10:09:34;103078.22;;;-0.12;90.37
17525;BME280;40431;52.198;9.902;2023-02-08T10:12:09;103085.53;;;-0.05;89.49
17525;BME280;40431;52.198;9.902;2023-02-08T10:14:48;103081.06;;;-0.06;87.57
17525;BME280;40431;52.198;9.902;2023-02-08T10:17:35;103089.22;;;0.00;86.59
17525;BME280;40431;52.198;9.902;2023-02-08T10:20:11;103076.00;;;0.06;87.33
17525;BME280;40431;52.198;9.902;2023-02-08T10:22:47;103075.13;;;0.07;86.32
17525;BME280;40431;52.198;9.902;2023-02-08T10:25:35;103073.50;;;0.14;86.27
17525;BME280;40431;52.198;9.902;2023-02-08T10:28:25;103087.22;;;0.29;87.90
17525;BME280;40431;52.198;9.902;2023-02-08T10:31:01;103079.22;;;0.31;89.59
17525;BME280;40431;52.198;9.902;2023-02-08T10:33:36;103075.91;;;0.41;90.89
17525;BME280;40431;52.198;9.902;2023-02-08T10:36:12;103072.22;;;0.36;89.93
17525;BME280;40431;52.198;9.902;2023-02-08T10:38:40;103066.81;;;0.33;91.79
17525;BME280;40431;52.198;9.902;2023-02-08T10:41:06;103067.81;;;0.38;93.43
17525;BME280;40431;52.198;9.902;2023-02-08T10:43:39;103057.06;;;0.33;93.38
17525;BME280;40431;52.198;9.902;2023-02-08T10:46:15;103061.44;;;0.31;94.83
17525;BME280;40431;52.198;9.902;2023-02-08T10:48:59;103069.63;;;0.39;94.06
17525;BME280;40431;52.198;9.902;2023-02-08T10:51:28;103061.69;;;0.44;92.20
17525;BME280;40431;52.198;9.902;2023-02-08T10:53:55;103064.47;;;0.48;91.10
17525;BME280;40431;52.198;9.902;2023-02-08T10:56:38;103055.78;;;0.57;89.41
17525;BME280;40431;52.198;9.902;2023-02-08T10:59:14;103053.13;;;0.59;89.48
17525;BME280;40431;52.198;9.902;2023-02-08T11:01:43;103052.28;;;0.61;90.16
17525;BME280;40431;52.198;9.902;2023-02-08T11:04:12;103050.53;;;0.63;89.85
17525;BME280;40431;52.198;9.902;2023-02-08T11:06:39;103050.69;;;0.71;89.46
17525;BME280;40431;52.198;9.902;2023-02-08T11:09:19;103043.72;;;0.78;90.56
17525;BME280;40431;52.198;9.902;2023-02-08T11:11:47;103049.06;;;0.79;90.36
17525;BME280;40431;52.198;9.902;2023-02-08T11:14:17;103036.63;;;0.80;89.66
17525;BME280;40431;52.198;9.902;2023-02-08T11:16:48;103033.13;;;0.82;89.87
17525;BME280;40431;52.198;9.902;2023-02-08T11:19:21;103030.53;;;0.87;89.91
17525;BME280;40431;52.198;9.902;2023-02-08T11:21:50;103032.41;;;0.93;90.42
17525;BME280;40431;52.198;9.902;2023-02-08T11:24:28;103023.66;;;1.00;89.92
17525;BME280;40431;52.198;9.902;2023-02-08T11:26:57;103018.34;;;1.02;89.62
17525;BME280;40431;52.198;9.902;2023-02-08T11:29:26;103016.63;;;1.05;88.50
17525;BME280;40431;52.198;9.902;2023-02-08T11:31:59;103013.13;;;1.09;86.78
17525;BME280;40431;52.198;9.902;2023-02-08T11:34:29;103011.41;;;1.13;86.60
17525;BME280;40431;52.198;9.902;2023-02-08T11:36:58;103018.66;;;1.19;86.42
17525;BME280;40431;52.198;9.902;2023-02-08T11:39:28;103020.53;;;1.26;85.57
17525;BME280;40431;52.198;9.902;2023-02-08T11:41:59;103014.38;;;1.30;84.83
17525;BME280;40431;52.198;9.902;2023-02-08T11:44:27;103020.69;;;1.35;84.02
17525;BME280;40431;52.198;9.902;2023-02-08T11:46:56;103019.88;;;1.41;82.01
17525;BME280;40431;52.198;9.902;2023-02-08T11:49:29;103022.75;;;1.52;81.24
17525;BME280;40431;52.198;9.902;2023-02-08T11:51:57;103007.59;;;1.50;79.54
17525;BME280;40431;52.198;9.902;2023-02-08T11:54:32;103013.84;;;1.53;81.26
17525;BME280;40431;52.198;9.902;2023-02-08T11:57:03;103006.03;;;1.65;78.81
17525;BME280;40431;52.198;9.902;2023-02-08T11:59:30;103001.56;;;1.64;78.71
17525;BME280;40431;52.198;9.902;2023-02-08T12:01:56;103008.75;;;1.68;77.48
17525;BME280;40431;52.198;9.902;2023-02-08T12:04:22;103010.56;;;1.71;78.13
17525;BME280;40431;52.198;9.902;2023-02-08T12:07:11;103003.56;;;1.79;76.50
17525;BME280;40431;52.198;9.902;2023-02-08T12:12:48;103003.72;;;1.90;74.03
17525;BME280;40431;52.198;9.902;2023-02-08T12:15:25;102998.41;;;1.93;75.13
17525;BME280;40431;52.198;9.902;2023-02-08T12:18:07;102997.66;;;2.05;75.86
17525;BME280;40431;52.198;9.902;2023-02-08T12:20:39;102992.44;;;2.14;77.85
17525;BME280;40431;52.198;9.902;2023-02-08T12:23:32;102995.22;;;2.20;77.84
17525;BME280;40431;52.198;9.902;2023-02-08T12:26:11;102995.25;;;2.23;78.63
17525;BME280;40431;52.198;9.902;2023-02-08T12:28:48;102989.94;;;2.25;78.32
17525;BME280;40431;52.198;9.902;2023-02-08T12:31:25;102983.75;;;2.32;78.15
17525;BME280;40431;52.198;9.902;2023-02-08T12:34:02;102984.69;;;2.34;79.08
17525;BME280;40431;52.198;9.902;2023-02-08T12:36:53;102982.91;;;2.36;78.87
17525;BME280;40431;52.198;9.902;2023-02-08T12:39:44;102971.31;;;2.34;78.03
17525;BME280;40431;52.198;9.902;2023-02-08T12:42:39;102963.31;;;2.40;78.27
17525;BME280;40431;52.198;9.902;2023-02-08T12:45:29;102955.25;;;2.36;78.46
17525;BME280;40431;52.198;9.902;2023-02-08T12:48:10;102958.84;;;2.39;78.10
17525;BME280;40431;52.198;9.902;2023-02-08T12:50:48;102957.97;;;2.42;77.37
17525;BME280;40431;52.198;9.902;2023-02-08T12:53:21;102951.75;;;2.44;76.43
17525;BME280;40431;52.198;9.902;2023-02-08T12:55:53;102953.56;;;2.47;76.30
17525;BME280;40431;52.198;9.902;2023-02-08T12:58:27;102950.88;;;2.45;75.50
17525;BME280;40431;52.198;9.902;2023-02-08T13:00:55;102944.66;;;2.46;76.06
17525;BME280;40431;52.198;9.902;2023-02-08T13:03:34;102942.88;;;2.48;74.71
17525;BME280;40431;52.198;9.902;2023-02-08T13:06:06;102935.69;;;2.43;73.92
17525;BME280;40431;52.198;9.902;2023-02-08T13:08:35;102925.84;;;2.40;73.52